createdAt,value
2022-11-10T00:00:16.000Z,0
2022-11-10T00:01:31.000Z,0
2022-11-10T00:02:47.000Z,0
2022-11-10T00:04:03.000Z,0
2022-11-10T00:05:19.000Z,0
2022-11-10T00:06:35.000Z,0
2022-11-10T00:07:52.000Z,0
2022-11-10T00:09:08.000Z,0
2022-11-10T00:10:24.000Z,0
2022-11-10T00:12:57.000Z,0
2022-11-10T00:14:13.000Z,0
2022-11-10T00:15:29.000Z,0
2022-11-10T00:16:46.000Z,0
2022-11-10T00:18:02.000Z,0
2022-11-10T00:19:17.000Z,0
2022-11-10T00:20:34.000Z,0
2022-11-10T00:21:50.000Z,0
2022-11-10T00:23:06.000Z,0
2022-11-10T00:24:22.000Z,0
2022-11-10T00:25:39.000Z,0
2022-11-10T00:26:55.000Z,0
2022-11-10T00:28:11.000Z,0
2022-11-10T00:29:27.000Z,0
2022-11-10T00:31:58.000Z,0
2022-11-10T00:33:14.000Z,0
2022-11-10T00:34:31.000Z,0
2022-11-10T00:35:47.000Z,0
2022-11-10T00:38:20.000Z,0
2022-11-10T00:39:36.000Z,0
2022-11-10T00:40:52.000Z,0
2022-11-10T00:42:09.000Z,0
2022-11-10T00:43:25.000Z,0
2022-11-10T00:44:41.000Z,0
2022-11-10T00:45:57.000Z,0
2022-11-10T00:47:13.000Z,0
2022-11-10T00:48:29.000Z,0
2022-11-10T00:49:45.000Z,0
2022-11-10T00:51:02.000Z,0
2022-11-10T00:52:18.000Z,0
2022-11-10T00:53:34.000Z,0
2022-11-10T00:54:50.000Z,0
2022-11-10T00:56:07.000Z,0
2022-11-10T00:57:23.000Z,0
2022-11-10T00:58:38.000Z,0
2022-11-10T00:59:54.000Z,0
2022-11-10T01:01:10.000Z,0
2022-11-10T01:02:25.000Z,0
2022-11-10T01:03:41.000Z,0
2022-11-10T01:04:58.000Z,0
2022-11-10T01:06:14.000Z,0
2022-11-10T01:07:30.000Z,0
2022-11-10T01:08:47.000Z,0
2022-11-10T01:10:03.000Z,0
2022-11-10T01:11:19.000Z,0
2022-11-10T01:12:35.000Z,0
2022-11-10T01:13:52.000Z,0
2022-11-10T01:15:08.000Z,0
2022-11-10T01:16:24.000Z,0
2022-11-10T01:17:41.000Z,0
2022-11-10T01:18:56.000Z,0
2022-11-10T01:20:12.000Z,0
2022-11-10T01:21:29.000Z,0
2022-11-10T01:22:45.000Z,0
2022-11-10T01:24:01.000Z,0
2022-11-10T01:25:17.000Z,0
2022-11-10T01:26:34.000Z,0
2022-11-10T01:29:06.000Z,0
2022-11-10T01:30:23.000Z,0
2022-11-10T01:31:39.000Z,0
2022-11-10T01:32:55.000Z,0
2022-11-10T01:34:11.000Z,0
2022-11-10T01:35:27.000Z,0
2022-11-10T01:36:43.000Z,0
2022-11-10T01:37:59.000Z,0
2022-11-10T01:39:16.000Z,0
2022-11-10T01:40:32.000Z,0
2022-11-10T01:41:48.000Z,0
2022-11-10T01:43:04.000Z,0
2022-11-10T01:44:21.000Z,0
2022-11-10T01:45:37.000Z,0
2022-11-10T01:46:53.000Z,0
2022-11-10T01:48:10.000Z,0
2022-11-10T01:49:26.000Z,0
2022-11-10T01:50:42.000Z,0
2022-11-10T01:51:57.000Z,0
2022-11-10T01:54:30.000Z,0
2022-11-10T01:55:46.000Z,0
2022-11-10T01:57:03.000Z,0
2022-11-10T01:58:19.000Z,0
2022-11-10T01:59:35.000Z,0
2022-11-10T02:00:51.000Z,0
2022-11-10T02:02:08.000Z,0
2022-11-10T02:03:24.000Z,0
2022-11-10T02:04:40.000Z,0
2022-11-10T02:05:57.000Z,0
2022-11-10T02:07:13.000Z,0
2022-11-10T02:08:28.000Z,0
2022-11-10T02:09:44.000Z,0
2022-11-10T02:11:01.000Z,0
2022-11-10T02:12:17.000Z,0
2022-11-10T02:13:33.000Z,0
2022-11-10T02:14:50.000Z,0
2022-11-10T02:16:06.000Z,0
2022-11-10T02:17:22.000Z,0
2022-11-10T02:19:55.000Z,0
2022-11-10T02:21:11.000Z,0
2022-11-10T02:22:27.000Z,0
2022-11-10T02:23:44.000Z,0
2022-11-10T02:25:00.000Z,0
2022-11-10T02:26:15.000Z,0
2022-11-10T02:27:32.000Z,0
2022-11-10T02:28:48.000Z,0
2022-11-10T02:30:04.000Z,0
2022-11-10T02:31:20.000Z,0
2022-11-10T02:32:37.000Z,0
2022-11-10T02:33:53.000Z,0
2022-11-10T02:35:09.000Z,0
2022-11-10T02:36:26.000Z,0
2022-11-10T02:37:42.000Z,0
2022-11-10T02:38:58.000Z,0
2022-11-10T02:40:14.000Z,0
2022-11-10T02:41:31.000Z,0
2022-11-10T02:42:46.000Z,0
2022-11-10T02:45:19.000Z,0
2022-11-10T02:46:35.000Z,0
2022-11-10T02:47:51.000Z,0
2022-11-10T02:49:07.000Z,0
2022-11-10T02:50:24.000Z,0
2022-11-10T02:51:40.000Z,0
2022-11-10T02:52:56.000Z,0
2022-11-10T02:54:13.000Z,0
2022-11-10T02:55:29.000Z,0
2022-11-10T02:56:45.000Z,0
2022-11-10T02:58:01.000Z,0
2022-11-10T02:59:17.000Z,0
2022-11-10T03:00:33.000Z,0
2022-11-10T03:01:49.000Z,0
2022-11-10T03:03:06.000Z,0
2022-11-10T03:04:22.000Z,0
2022-11-10T03:05:38.000Z,0
2022-11-10T03:06:54.000Z,0
2022-11-10T03:08:11.000Z,0
2022-11-10T03:10:43.000Z,0
2022-11-10T03:12:00.000Z,0
2022-11-10T03:13:16.000Z,0
2022-11-10T03:14:32.000Z,0
2022-11-10T03:15:47.000Z,0
2022-11-10T03:17:04.000Z,0
2022-11-10T03:18:20.000Z,0
2022-11-10T03:19:36.000Z,0
2022-11-10T03:22:09.000Z,0
2022-11-10T03:23:25.000Z,0
2022-11-10T03:24:41.000Z,0
2022-11-10T03:25:58.000Z,0
2022-11-10T03:27:14.000Z,0
2022-11-10T03:28:30.000Z,0
2022-11-10T03:29:47.000Z,0
2022-11-10T03:31:03.000Z,0
2022-11-10T03:32:19.000Z,0
2022-11-10T03:33:35.000Z,0
2022-11-10T03:36:07.000Z,0
2022-11-10T03:37:22.000Z,0
2022-11-10T03:38:39.000Z,0
2022-11-10T03:39:54.000Z,0
2022-11-10T03:41:10.000Z,0
2022-11-10T03:42:27.000Z,0
2022-11-10T03:43:43.000Z,0
2022-11-10T03:44:59.000Z,0
2022-11-10T03:47:32.000Z,0
2022-11-10T03:48:48.000Z,0
2022-11-10T03:50:04.000Z,0
2022-11-10T03:51:21.000Z,0
2022-11-10T03:52:37.000Z,0
2022-11-10T03:53:53.000Z,0
2022-11-10T03:55:09.000Z,0
2022-11-10T03:56:25.000Z,0
2022-11-10T03:57:41.000Z,0
2022-11-10T03:58:57.000Z,0
2022-11-10T04:01:30.000Z,0
2022-11-10T04:02:45.000Z,0
2022-11-10T04:04:01.000Z,0
2022-11-10T04:05:17.000Z,0
2022-11-10T04:06:33.000Z,0
2022-11-10T04:07:49.000Z,0
2022-11-10T04:09:06.000Z,0
2022-11-10T04:10:22.000Z,0
2022-11-10T04:11:38.000Z,0
2022-11-10T04:14:11.000Z,0
2022-11-10T04:15:27.000Z,0
2022-11-10T04:16:43.000Z,0
2022-11-10T04:18:00.000Z,0
2022-11-10T04:19:16.000Z,0
2022-11-10T04:20:31.000Z,0
2022-11-10T04:21:48.000Z,0
2022-11-10T04:23:04.000Z,0
2022-11-10T04:24:20.000Z,0
2022-11-10T04:26:53.000Z,0
2022-11-10T04:28:09.000Z,0
2022-11-10T04:29:25.000Z,0
2022-11-10T04:30:42.000Z,0
2022-11-10T04:31:58.000Z,0
2022-11-10T04:33:14.000Z,0
2022-11-10T04:35:47.000Z,0
2022-11-10T04:37:02.000Z,0
2022-11-10T04:38:18.000Z,0
2022-11-10T04:39:35.000Z,0
2022-11-10T04:40:51.000Z,0
2022-11-10T04:42:07.000Z,0
2022-11-10T04:43:23.000Z,0
2022-11-10T04:45:56.000Z,0
2022-11-10T04:47:12.000Z,0
2022-11-10T04:48:29.000Z,0
2022-11-10T04:49:45.000Z,0
2022-11-10T04:51:01.000Z,0
2022-11-10T04:52:17.000Z,0
2022-11-10T04:53:33.000Z,0
2022-11-10T04:54:49.000Z,0
2022-11-10T04:56:05.000Z,0
2022-11-10T04:57:22.000Z,0
2022-11-10T04:58:38.000Z,0
2022-11-10T04:59:54.000Z,0
2022-11-10T05:01:10.000Z,0
2022-11-10T05:02:26.000Z,0
2022-11-10T05:04:57.000Z,0
2022-11-10T05:06:14.000Z,0
2022-11-10T05:07:30.000Z,0
2022-11-10T05:08:46.000Z,0
2022-11-10T05:10:03.000Z,0
2022-11-10T05:11:19.000Z,0
2022-11-10T05:13:51.000Z,0
2022-11-10T05:15:08.000Z,0
2022-11-10T05:17:40.000Z,0
2022-11-10T05:21:28.000Z,0
2022-11-10T05:22:43.000Z,0
2022-11-10T05:23:59.000Z,0
2022-11-10T05:25:15.000Z,0
2022-11-10T05:26:31.000Z,0
2022-11-10T05:27:48.000Z,0
2022-11-10T05:29:04.000Z,0
2022-11-10T05:30:20.000Z,0
2022-11-10T05:31:36.000Z,0
2022-11-10T05:32:53.000Z,0
2022-11-10T05:34:09.000Z,0
2022-11-10T05:35:25.000Z,0
2022-11-10T05:36:41.000Z,0
2022-11-10T05:37:56.000Z,0
2022-11-10T05:40:29.000Z,0
2022-11-10T05:43:01.000Z,0
2022-11-10T05:44:17.000Z,0
2022-11-10T05:45:34.000Z,0
2022-11-10T05:46:50.000Z,0
2022-11-10T05:48:06.000Z,0
2022-11-10T05:49:23.000Z,0
2022-11-10T05:50:39.000Z,0
2022-11-10T05:51:55.000Z,0
2022-11-10T05:53:10.000Z,0
2022-11-10T05:55:42.000Z,0
2022-11-10T05:56:58.000Z,0
2022-11-10T05:58:15.000Z,0
2022-11-10T05:59:31.000Z,1
2022-11-10T06:00:47.000Z,0
2022-11-10T06:02:03.000Z,0
2022-11-10T06:03:20.000Z,1
2022-11-10T06:04:36.000Z,1
2022-11-10T06:05:52.000Z,1
2022-11-10T06:08:25.000Z,2
2022-11-10T06:09:41.000Z,1
2022-11-10T06:10:56.000Z,0
2022-11-10T06:12:12.000Z,1
2022-11-10T06:13:29.000Z,1
2022-11-10T06:14:45.000Z,7
2022-11-10T06:16:01.000Z,2
2022-11-10T06:17:17.000Z,2
2022-11-10T06:18:34.000Z,5
2022-11-10T06:19:50.000Z,4
2022-11-10T06:21:06.000Z,8
2022-11-10T06:23:38.000Z,15
2022-11-10T06:24:55.000Z,16
2022-11-10T06:26:11.000Z,10
2022-11-10T06:27:26.000Z,15
2022-11-10T06:28:42.000Z,21
2022-11-10T06:29:59.000Z,27
2022-11-10T06:31:15.000Z,27
2022-11-10T06:32:31.000Z,26
2022-11-10T06:33:47.000Z,28
2022-11-10T06:35:03.000Z,31
2022-11-10T06:36:18.000Z,64
2022-11-10T06:37:34.000Z,62
2022-11-10T06:38:50.000Z,68
2022-11-10T06:40:07.000Z,85
2022-11-10T06:41:23.000Z,97
2022-11-10T06:42:39.000Z,86
2022-11-10T06:43:55.000Z,96
2022-11-10T06:45:12.000Z,117
2022-11-10T06:46:28.000Z,140
2022-11-10T06:47:44.000Z,143
2022-11-10T06:48:59.000Z,161
2022-11-10T06:50:14.000Z,175
2022-11-10T06:51:31.000Z,211
2022-11-10T06:52:47.000Z,241
2022-11-10T06:54:03.000Z,279
2022-11-10T06:55:19.000Z,327
2022-11-10T06:56:36.000Z,355
2022-11-10T06:59:08.000Z,330
2022-11-10T07:00:24.000Z,342
2022-11-10T07:01:41.000Z,398
2022-11-10T07:04:13.000Z,501
2022-11-10T07:05:28.000Z,524
2022-11-10T07:06:44.000Z,574
2022-11-10T07:08:00.000Z,621
2022-11-10T07:09:16.000Z,671
2022-11-10T07:11:49.000Z,742
2022-11-10T07:13:05.000Z,652
2022-11-10T07:14:21.000Z,747
2022-11-10T07:15:37.000Z,843
2022-11-10T07:16:53.000Z,909
2022-11-10T07:18:10.000Z,969
2022-11-10T07:19:26.000Z,979
2022-11-10T07:20:42.000Z,1074
2022-11-10T07:21:58.000Z,918
2022-11-10T07:23:14.000Z,833
2022-11-10T07:24:30.000Z,1102
2022-11-10T07:25:46.000Z,1183
2022-11-10T07:27:02.000Z,1215
2022-11-10T07:28:19.000Z,1274
2022-11-10T07:29:35.000Z,1299
2022-11-10T07:30:51.000Z,1329
2022-11-10T07:32:07.000Z,1442
2022-11-10T07:33:23.000Z,1457
2022-11-10T07:34:38.000Z,1553
2022-11-10T07:35:54.000Z,1561
2022-11-10T07:37:10.000Z,1618
2022-11-10T07:38:26.000Z,1714
2022-11-10T07:39:43.000Z,1723
2022-11-10T07:40:59.000Z,1768
2022-11-10T07:42:15.000Z,1841
2022-11-10T07:43:31.000Z,1897
2022-11-10T07:44:48.000Z,1966
2022-11-10T07:46:04.000Z,2018
2022-11-10T07:47:20.000Z,2071
2022-11-10T07:48:36.000Z,2111
2022-11-10T07:49:53.000Z,2158
2022-11-10T07:51:08.000Z,2233
2022-11-10T07:52:24.000Z,2328
2022-11-10T07:53:40.000Z,2423
2022-11-10T07:54:57.000Z,2544
2022-11-10T07:56:13.000Z,2564
2022-11-10T07:57:29.000Z,2664
2022-11-10T07:58:45.000Z,2759
2022-11-10T08:00:01.000Z,2717
2022-11-10T08:02:34.000Z,3601
2022-11-10T08:03:50.000Z,3816
2022-11-10T08:05:06.000Z,2908
2022-11-10T08:06:23.000Z,1634
2022-11-10T08:07:38.000Z,3772
2022-11-10T08:08:54.000Z,4325
2022-11-10T08:10:10.000Z,12165
2022-11-10T08:11:27.000Z,13853
2022-11-10T08:12:43.000Z,21327
2022-11-10T08:13:59.000Z,29860
2022-11-10T08:15:15.000Z,15232
2022-11-10T08:16:31.000Z,11196
2022-11-10T08:17:48.000Z,7995
2022-11-10T08:19:04.000Z,12645
2022-11-10T08:20:20.000Z,3296
2022-11-10T08:21:36.000Z,11732
2022-11-10T08:22:53.000Z,5515
2022-11-10T08:24:08.000Z,5675
2022-11-10T08:25:24.000Z,3755
2022-11-10T08:26:40.000Z,8207
2022-11-10T08:27:57.000Z,2568
2022-11-10T08:29:13.000Z,5205
2022-11-10T08:30:29.000Z,27857
2022-11-10T08:31:45.000Z,8819
2022-11-10T08:33:02.000Z,15906
2022-11-10T08:34:18.000Z,23407
2022-11-10T08:35:34.000Z,4464
2022-11-10T08:36:50.000Z,76091
2022-11-10T08:38:06.000Z,76706
2022-11-10T08:39:23.000Z,74267
2022-11-10T08:40:38.000Z,26268
2022-11-10T08:41:54.000Z,20619
2022-11-10T08:43:10.000Z,76839
2022-11-10T08:45:43.000Z,80283
2022-11-10T08:46:59.000Z,70446
2022-11-10T08:48:15.000Z,11067
2022-11-10T08:49:32.000Z,79977
2022-11-10T08:50:48.000Z,75259
2022-11-10T08:53:20.000Z,66917
2022-11-10T08:54:37.000Z,7451
2022-11-10T08:55:53.000Z,62061
2022-11-10T08:57:08.000Z,5545
2022-11-10T08:58:24.000Z,76518
2022-11-10T08:59:40.000Z,75748
2022-11-10T09:00:57.000Z,65861
2022-11-10T09:02:13.000Z,14040
2022-11-10T09:03:29.000Z,10869
2022-11-10T09:06:02.000Z,73678
2022-11-10T09:07:17.000Z,14987
2022-11-10T09:08:32.000Z,83698
2022-11-10T09:09:48.000Z,81551
2022-11-10T09:11:05.000Z,82319
2022-11-10T09:12:21.000Z,81164
2022-11-10T09:13:37.000Z,82048
2022-11-10T09:14:53.000Z,81872
2022-11-10T09:16:10.000Z,81763
2022-11-10T09:17:26.000Z,79090
2022-11-10T09:18:42.000Z,80159
2022-11-10T09:19:58.000Z,80603
2022-11-10T09:21:13.000Z,66219
2022-11-10T09:22:29.000Z,15904
2022-11-10T09:23:45.000Z,21957
2022-11-10T09:25:01.000Z,7461
2022-11-10T09:26:17.000Z,18757
2022-11-10T09:27:34.000Z,12004
2022-11-10T09:28:50.000Z,24468
2022-11-10T09:31:22.000Z,12550
2022-11-10T09:32:39.000Z,23751
2022-11-10T09:33:55.000Z,80530
2022-11-10T09:35:11.000Z,83303
2022-11-10T09:36:27.000Z,82612
2022-11-10T09:37:43.000Z,78738
2022-11-10T09:40:15.000Z,75217
2022-11-10T09:41:30.000Z,75562
2022-11-10T09:42:46.000Z,76097
2022-11-10T09:44:02.000Z,75606
2022-11-10T09:45:18.000Z,79451
2022-11-10T09:46:34.000Z,79194
2022-11-10T09:47:50.000Z,77456
2022-11-10T09:49:07.000Z,78259
2022-11-10T09:50:23.000Z,81484
2022-11-10T09:51:39.000Z,80081
2022-11-10T09:52:55.000Z,77585
2022-11-10T09:54:12.000Z,76615
2022-11-10T09:55:27.000Z,75418
2022-11-10T09:56:42.000Z,78429
2022-11-10T09:57:58.000Z,79459
2022-11-10T10:00:31.000Z,83028
2022-11-10T10:01:47.000Z,79278
2022-11-10T10:03:03.000Z,77711
2022-11-10T10:05:36.000Z,81638
2022-11-10T10:06:52.000Z,82351
2022-11-10T10:09:24.000Z,81634
2022-11-10T10:10:41.000Z,80527
2022-11-10T10:11:57.000Z,83888
2022-11-10T10:13:12.000Z,82440
2022-11-10T10:14:27.000Z,82951
2022-11-10T10:15:44.000Z,81711
2022-11-10T10:17:00.000Z,82514
2022-11-10T10:18:16.000Z,81782
2022-11-10T10:19:32.000Z,83287
2022-11-10T10:20:49.000Z,73707
2022-11-10T10:22:05.000Z,34083
2022-11-10T10:23:21.000Z,7385
2022-11-10T10:24:37.000Z,82674
2022-11-10T10:25:54.000Z,62155
2022-11-10T10:27:09.000Z,6778
2022-11-10T10:28:24.000Z,71108
2022-11-10T10:29:40.000Z,29855
2022-11-10T10:30:57.000Z,7826
2022-11-10T10:33:29.000Z,76520
2022-11-10T10:36:01.000Z,80910
2022-11-10T10:38:34.000Z,41788
2022-11-10T10:42:23.000Z,61220
2022-11-10T10:43:39.000Z,75323
2022-11-10T10:44:54.000Z,76754
2022-11-10T10:47:27.000Z,75148
2022-11-10T10:48:42.000Z,75515
2022-11-10T10:49:57.000Z,76073
2022-11-10T10:51:13.000Z,60661
2022-11-10T10:52:30.000Z,81724
2022-11-10T10:53:46.000Z,77422
2022-11-10T10:56:18.000Z,5114
2022-11-10T10:57:35.000Z,9260
2022-11-10T10:58:51.000Z,12027
2022-11-10T11:00:07.000Z,6413
2022-11-10T11:01:23.000Z,4066
2022-11-10T11:02:39.000Z,9481
2022-11-10T11:03:56.000Z,69243
2022-11-10T11:05:12.000Z,21777
2022-11-10T11:06:27.000Z,3711
2022-11-10T11:07:43.000Z,11827
2022-11-10T11:09:00.000Z,10240
2022-11-10T11:10:16.000Z,11464
2022-11-10T11:12:48.000Z,10933
2022-11-10T11:14:05.000Z,6444
2022-11-10T11:15:21.000Z,4410
2022-11-10T11:16:37.000Z,4618
2022-11-10T11:19:10.000Z,20775
2022-11-10T11:20:26.000Z,4548
2022-11-10T11:21:42.000Z,79186
2022-11-10T11:22:57.000Z,79340
2022-11-10T11:25:30.000Z,60478
2022-11-10T11:26:46.000Z,10135
2022-11-10T11:29:18.000Z,75093
2022-11-10T11:30:35.000Z,78533
2022-11-10T11:31:51.000Z,80625
2022-11-10T11:33:07.000Z,58353
2022-11-10T11:34:23.000Z,2717
2022-11-10T11:35:40.000Z,6869
2022-11-10T11:38:12.000Z,57037
2022-11-10T11:39:27.000Z,1942
2022-11-10T11:40:44.000Z,15668
2022-11-10T11:42:00.000Z,11173
2022-11-10T11:43:16.000Z,9346
2022-11-10T11:44:32.000Z,9258
2022-11-10T11:45:48.000Z,4727
2022-11-10T11:47:05.000Z,9391
2022-11-10T11:48:21.000Z,9049
2022-11-10T11:49:37.000Z,4039
2022-11-10T11:50:53.000Z,7701
2022-11-10T11:52:10.000Z,20651
2022-11-10T11:53:26.000Z,10901
2022-11-10T11:54:42.000Z,61061
2022-11-10T11:55:57.000Z,13803
2022-11-10T11:57:14.000Z,79117
2022-11-10T11:58:29.000Z,81894
2022-11-10T11:59:45.000Z,81371
2022-11-10T12:01:01.000Z,82291
2022-11-10T12:02:18.000Z,56854
2022-11-10T12:03:34.000Z,80618
2022-11-10T12:04:50.000Z,80635
2022-11-10T12:06:06.000Z,77433
2022-11-10T12:07:23.000Z,80606
2022-11-10T12:08:39.000Z,78980
2022-11-10T12:11:10.000Z,79927
2022-11-10T12:12:25.000Z,82333
2022-11-10T12:13:42.000Z,80226
2022-11-10T12:16:14.000Z,11847
2022-11-10T12:17:29.000Z,27593
2022-11-10T12:20:01.000Z,8007
2022-11-10T12:21:17.000Z,14683
2022-11-10T12:22:33.000Z,79349
2022-11-10T12:23:50.000Z,57491
2022-11-10T12:25:06.000Z,81641
2022-11-10T12:26:22.000Z,71496
2022-11-10T12:28:55.000Z,36612
2022-11-10T12:30:11.000Z,21481
2022-11-10T12:31:27.000Z,5122
2022-11-10T12:32:43.000Z,5304
2022-11-10T12:34:00.000Z,5653
2022-11-10T12:35:15.000Z,7092
2022-11-10T12:36:31.000Z,6326
2022-11-10T12:37:47.000Z,4732
2022-11-10T12:39:03.000Z,6121
2022-11-10T12:40:20.000Z,3379
2022-11-10T12:41:36.000Z,3865
2022-11-10T12:42:52.000Z,4254
2022-11-10T12:44:08.000Z,4878
2022-11-10T12:45:25.000Z,4071
2022-11-10T12:46:40.000Z,1290
2022-11-10T12:47:55.000Z,2715
2022-11-10T12:49:11.000Z,13654
2022-11-10T12:50:28.000Z,9317
2022-11-10T12:51:44.000Z,5350
2022-11-10T12:54:16.000Z,4993
2022-11-10T12:55:33.000Z,5703
2022-11-10T12:56:49.000Z,3555
2022-11-10T12:58:05.000Z,2571
2022-11-10T12:59:21.000Z,4790
2022-11-10T13:00:37.000Z,4628
2022-11-10T13:03:10.000Z,4291
2022-11-10T13:04:25.000Z,33353
2022-11-10T13:05:40.000Z,6712
2022-11-10T13:06:57.000Z,67490
2022-11-10T13:08:13.000Z,24049
2022-11-10T13:09:29.000Z,4566
2022-11-10T13:10:45.000Z,27208
2022-11-10T13:12:02.000Z,34832
2022-11-10T13:13:18.000Z,15473
2022-11-10T13:14:34.000Z,17595
2022-11-10T13:15:50.000Z,5330
2022-11-10T13:17:07.000Z,4166
2022-11-10T13:18:22.000Z,3357
2022-11-10T13:19:37.000Z,3002
2022-11-10T13:20:53.000Z,2978
2022-11-10T13:22:10.000Z,3165
2022-11-10T13:23:26.000Z,3225
2022-11-10T13:24:42.000Z,2976
2022-11-10T13:25:58.000Z,2866
2022-11-10T13:27:14.000Z,2839
2022-11-10T13:29:47.000Z,2213
2022-11-10T13:32:19.000Z,2676
2022-11-10T13:33:36.000Z,2871
2022-11-10T13:34:51.000Z,2863
2022-11-10T13:36:06.000Z,2722
2022-11-10T13:37:22.000Z,2595
2022-11-10T13:39:55.000Z,3007
2022-11-10T13:41:11.000Z,2006
2022-11-10T13:42:27.000Z,2571
2022-11-10T13:43:44.000Z,2720
2022-11-10T13:45:00.000Z,2532
2022-11-10T13:46:16.000Z,2574
2022-11-10T13:47:32.000Z,2169
2022-11-10T13:48:48.000Z,2063
2022-11-10T13:50:05.000Z,2067
2022-11-10T13:51:21.000Z,2286
2022-11-10T13:52:36.000Z,1951
2022-11-10T13:53:52.000Z,1690
2022-11-10T13:55:09.000Z,1676
2022-11-10T13:56:25.000Z,1685
2022-11-10T13:57:41.000Z,1729
2022-11-10T13:58:57.000Z,1796
2022-11-10T14:00:14.000Z,1679
2022-11-10T14:01:30.000Z,1588
2022-11-10T14:02:45.000Z,1590
2022-11-10T14:04:00.000Z,1646
2022-11-10T14:05:17.000Z,1650
2022-11-10T14:06:33.000Z,1596
2022-11-10T14:07:49.000Z,1566
2022-11-10T14:10:21.000Z,1533
2022-11-10T14:11:38.000Z,1470
2022-11-10T14:12:54.000Z,1419
2022-11-10T14:14:10.000Z,1393
2022-11-10T14:15:26.000Z,1366
2022-11-10T14:16:43.000Z,1334
2022-11-10T14:17:59.000Z,1312
2022-11-10T14:19:15.000Z,1245
2022-11-10T14:20:30.000Z,1179
2022-11-10T14:21:47.000Z,1222
2022-11-10T14:23:03.000Z,1249
2022-11-10T14:24:19.000Z,1240
2022-11-10T14:25:35.000Z,1221
2022-11-10T14:26:52.000Z,1204
2022-11-10T14:28:08.000Z,1177
2022-11-10T14:29:24.000Z,1106
2022-11-10T14:30:39.000Z,1016
2022-11-10T14:31:55.000Z,935
2022-11-10T14:33:11.000Z,870
2022-11-10T14:34:27.000Z,836
2022-11-10T14:35:43.000Z,813
2022-11-10T14:38:16.000Z,758
2022-11-10T14:39:32.000Z,753
2022-11-10T14:40:48.000Z,754
2022-11-10T14:42:04.000Z,757
2022-11-10T14:43:21.000Z,755
2022-11-10T14:44:37.000Z,736
2022-11-10T14:45:53.000Z,702
2022-11-10T14:48:26.000Z,640
2022-11-10T14:49:41.000Z,613
2022-11-10T14:50:56.000Z,593
2022-11-10T14:52:12.000Z,573
2022-11-10T14:53:29.000Z,563
2022-11-10T14:54:45.000Z,557
2022-11-10T14:57:17.000Z,574
2022-11-10T14:58:33.000Z,577
2022-11-10T14:59:50.000Z,565
2022-11-10T15:01:06.000Z,546
2022-11-10T15:02:22.000Z,531
2022-11-10T15:03:38.000Z,521
2022-11-10T15:04:55.000Z,525
2022-11-10T15:06:11.000Z,528
2022-11-10T15:07:26.000Z,520
2022-11-10T15:08:42.000Z,499
2022-11-10T15:11:15.000Z,435
2022-11-10T15:12:30.000Z,408
2022-11-10T15:15:02.000Z,371
2022-11-10T15:16:18.000Z,353
2022-11-10T15:17:34.000Z,333
2022-11-10T15:18:50.000Z,320
2022-11-10T15:20:06.000Z,307
2022-11-10T15:21:23.000Z,297
2022-11-10T15:22:39.000Z,289
2022-11-10T15:23:55.000Z,280
2022-11-10T15:26:28.000Z,265
2022-11-10T15:27:44.000Z,255
2022-11-10T15:29:00.000Z,242
2022-11-10T15:30:15.000Z,228
2022-11-10T15:31:32.000Z,215
2022-11-10T15:32:48.000Z,200
2022-11-10T15:34:04.000Z,184
2022-11-10T15:35:20.000Z,170
2022-11-10T15:36:37.000Z,156
2022-11-10T15:39:09.000Z,134
2022-11-10T15:40:25.000Z,125
2022-11-10T15:41:41.000Z,113
2022-11-10T15:42:58.000Z,105
2022-11-10T15:44:14.000Z,96
2022-11-10T15:45:30.000Z,88
2022-11-10T15:46:45.000Z,81
2022-11-10T15:48:02.000Z,75
2022-11-10T15:49:18.000Z,70
2022-11-10T15:51:50.000Z,58
2022-11-10T15:53:07.000Z,51
2022-11-10T15:54:23.000Z,47
2022-11-10T15:55:39.000Z,40
2022-11-10T15:56:55.000Z,35
2022-11-10T15:58:11.000Z,30
2022-11-10T15:59:28.000Z,26
2022-11-10T16:00:44.000Z,22
2022-11-10T16:02:00.000Z,19
2022-11-10T16:03:15.000Z,18
2022-11-10T16:04:32.000Z,10
2022-11-10T16:05:47.000Z,11
2022-11-10T16:07:02.000Z,10
2022-11-10T16:08:18.000Z,8
2022-11-10T16:09:35.000Z,4
2022-11-10T16:10:51.000Z,3
2022-11-10T16:12:07.000Z,3
2022-11-10T16:13:23.000Z,2
2022-11-10T16:14:40.000Z,2
2022-11-10T16:17:12.000Z,1
2022-11-10T16:18:28.000Z,1
2022-11-10T16:19:45.000Z,1
2022-11-10T16:21:01.000Z,0
2022-11-10T16:22:17.000Z,1
2022-11-10T16:23:32.000Z,0
2022-11-10T16:24:49.000Z,0
2022-11-10T16:26:05.000Z,0
2022-11-10T16:27:21.000Z,0
2022-11-10T16:28:38.000Z,0
2022-11-10T16:29:54.000Z,0
2022-11-10T16:31:10.000Z,0
2022-11-10T16:32:26.000Z,0
2022-11-10T16:33:42.000Z,0
2022-11-10T16:34:57.000Z,0
2022-11-10T16:36:13.000Z,0
2022-11-10T16:37:30.000Z,0
2022-11-10T16:38:46.000Z,0
2022-11-10T16:40:02.000Z,0
2022-11-10T16:42:35.000Z,0
2022-11-10T16:43:51.000Z,0
2022-11-10T16:45:07.000Z,0
2022-11-10T16:46:24.000Z,0
2022-11-10T16:47:40.000Z,0
2022-11-10T16:48:56.000Z,0
2022-11-10T16:50:12.000Z,0
2022-11-10T16:51:28.000Z,0
2022-11-10T16:52:44.000Z,0
2022-11-10T16:55:17.000Z,0
2022-11-10T16:56:32.000Z,0
2022-11-10T16:57:47.000Z,0
2022-11-10T16:59:04.000Z,0
2022-11-10T17:00:20.000Z,0
2022-11-10T17:01:36.000Z,0
2022-11-10T17:02:52.000Z,0
2022-11-10T17:04:09.000Z,0
2022-11-10T17:05:25.000Z,0
2022-11-10T17:06:41.000Z,0
2022-11-10T17:07:58.000Z,0
2022-11-10T17:09:14.000Z,0
2022-11-10T17:11:45.000Z,0
2022-11-10T17:13:01.000Z,0
2022-11-10T17:14:17.000Z,0
2022-11-10T17:15:33.000Z,0
2022-11-10T17:16:50.000Z,0
2022-11-10T17:18:06.000Z,0
2022-11-10T17:19:22.000Z,0
2022-11-10T17:20:38.000Z,0
2022-11-10T17:21:55.000Z,0
2022-11-10T17:23:11.000Z,0
2022-11-10T17:24:27.000Z,0
2022-11-10T17:25:43.000Z,0
2022-11-10T17:28:14.000Z,0
2022-11-10T17:29:31.000Z,0
2022-11-10T17:30:47.000Z,0
2022-11-10T17:32:03.000Z,0
2022-11-10T17:33:19.000Z,0
2022-11-10T17:34:36.000Z,0
2022-11-10T17:35:52.000Z,0
2022-11-10T17:37:08.000Z,0
2022-11-10T17:38:25.000Z,0
2022-11-10T17:39:41.000Z,0
2022-11-10T17:40:57.000Z,0
2022-11-10T17:42:13.000Z,0
2022-11-10T17:43:29.000Z,0
2022-11-10T17:46:01.000Z,0
2022-11-10T17:47:18.000Z,0
2022-11-10T17:48:34.000Z,0
2022-11-10T17:49:50.000Z,0
2022-11-10T17:51:06.000Z,0
2022-11-10T17:52:23.000Z,0
2022-11-10T17:53:39.000Z,0
2022-11-10T17:54:55.000Z,0
2022-11-10T17:56:12.000Z,0
2022-11-10T17:57:28.000Z,0
2022-11-10T17:58:44.000Z,0
2022-11-10T17:59:59.000Z,0
2022-11-10T18:01:16.000Z,0
2022-11-10T18:02:32.000Z,0
2022-11-10T18:05:05.000Z,0
2022-11-10T18:06:21.000Z,0
2022-11-10T18:07:36.000Z,0
2022-11-10T18:08:52.000Z,0
2022-11-10T18:10:09.000Z,0
2022-11-10T18:11:25.000Z,0
2022-11-10T18:12:41.000Z,0
2022-11-10T18:13:58.000Z,0
2022-11-10T18:15:14.000Z,0
2022-11-10T18:16:30.000Z,0
2022-11-10T18:17:46.000Z,0
2022-11-10T18:19:03.000Z,0
2022-11-10T18:20:19.000Z,0
2022-11-10T18:21:35.000Z,0
2022-11-10T18:22:52.000Z,0
2022-11-10T18:24:07.000Z,0
2022-11-10T18:25:23.000Z,0
2022-11-10T18:26:39.000Z,0
2022-11-10T18:27:56.000Z,0
2022-11-10T18:29:12.000Z,0
2022-11-10T18:30:28.000Z,0
2022-11-10T18:31:45.000Z,0
2022-11-10T18:33:01.000Z,0
2022-11-10T18:34:17.000Z,0
2022-11-10T18:36:50.000Z,0
2022-11-10T18:38:06.000Z,0
2022-11-10T18:39:22.000Z,0
2022-11-10T18:40:38.000Z,0
2022-11-10T18:41:54.000Z,0
2022-11-10T18:43:10.000Z,0
2022-11-10T18:44:27.000Z,0
2022-11-10T18:45:43.000Z,0
2022-11-10T18:46:59.000Z,0
2022-11-10T18:48:15.000Z,0
2022-11-10T18:50:48.000Z,0
2022-11-10T18:52:04.000Z,0
2022-11-10T18:53:21.000Z,0
2022-11-10T18:54:37.000Z,0
2022-11-10T18:55:53.000Z,0
2022-11-10T18:57:08.000Z,0
2022-11-10T18:58:25.000Z,0
2022-11-10T18:59:41.000Z,0
2022-11-10T19:00:57.000Z,0
2022-11-10T19:02:14.000Z,0
2022-11-10T19:03:30.000Z,0
2022-11-10T19:04:46.000Z,0
2022-11-10T19:06:02.000Z,0
2022-11-10T19:07:19.000Z,0
2022-11-10T19:08:35.000Z,0
2022-11-10T19:09:51.000Z,0
2022-11-10T19:11:08.000Z,0
2022-11-10T19:12:24.000Z,0
2022-11-10T19:14:55.000Z,0
2022-11-10T19:16:12.000Z,0
2022-11-10T19:17:28.000Z,0
2022-11-10T19:18:44.000Z,0
2022-11-10T19:20:01.000Z,0
2022-11-10T19:21:17.000Z,0
2022-11-10T19:22:33.000Z,0
2022-11-10T19:23:49.000Z,0
2022-11-10T19:25:06.000Z,0